航空気象通報

ウインドサーファーのための航空気象通報による風予報です。

8/31-9/1の航空気象通報(国内、海外)

2008年08月31日 22時45分17秒 | TAF
羽田空港
TAF RJTT 310851Z 311812 10004KT 9999 FEW015 BKN030
BECMG 0609 16010KT
日本時間1日03-15時:100度から4ノットの風
15-18時:風が変化
18-21時:160度から10ノットの風


那覇空港
TAF ROAH 310838Z 311812 29007KT 9999 FEW020
BECMG 0306 26009KT
TEMPO 0612 4000 SHRA FEW010 SCT020 FEW025CB
日本時間1日03-12時:290度から7ノットの風
12-15時:風が変化
15-21時:260度から9ノットの風


マウイのカフルイ空港
PHOG 311133Z 311212 04008KT P6SM BKN060
FM1900 04018KT P6SM FEW040 SCT060
FM0400 04012KT P6SM FEW040 SCT060
FM0700 04008KT P6SM SCT060
ハワイ時間31日02-09時:040度から8ノットの風

09-18時:040度から18ノットの風
18-21時:040度から12ノットの風
21時-1日02時:040度から8ノットの風


サイパン空港
PGSN 311120Z 311212 09009KT P6SM VCSH SCT020CB
マリアナ時間31日22時-1日22時:090度から9ノットの風
コメント
この記事をはてなブックマークに追加

8/30-31の航空気象通報(国内、海外)

2008年08月30日 23時23分22秒 | TAF
羽田空港
TAF RJTT 300841Z 301812 01008KT 9999 FEW010 SCT015 BKN030
TEMPO 1821 4000 SHRA BR FEW005 BKN009
BECMG 0912 07010KT
TEMPO 0912 4000 SHRA BR FEW005 BKN009
日本時間31日03-18時:010度から8ノットの風
18-21時:風が変化
21時:070度から10ノットの風

但し、03-06時:一時、
但し、18-21時:一時、

那覇空港
TAF ROAH 300841Z 301812 34012KT 9999 FEW025
日本時間31日03-21時:340度から12ノットの風


マウイのカフルイ空港
PHOG 301138Z 301212 04008KT P6SM BKN060
FM2000 06018G25KT P6SM SCT040 SCT060
FM0400 06015KT P6SM SCT050
FM0900 06008KT P6SM SCT050
ハワイ時間30日02-10時:040度から8ノットの風
10-18時:060度から18ノット、突風25ノット
18-21時:060度から8ノットの風
21時-31日02時:060度から8ノットの風


サイパン空港
PGSN 301132Z 301212 11007KT P6SM VCSH SCT022
マリアナ時間30日22時-31日22時:110度から7ノットの風

コメント
この記事をはてなブックマークに追加

8/29-30の航空気象通報(国内、海外)

2008年08月29日 22時55分02秒 | TAF
羽田空港
TAF RJTT 290855Z 291812 07006KT 9999 -SHRA FEW010 SCT020 BKN035
TEMPO 1824 4000 SHRA BR BKN007 BKN015
BECMG 0609 05008KT
TEMPO 0612 4000 SHRA BR BKN007 BKN015
日本時間30日03-15時:070度から6ノットの風
15-18時:風が変化
18-21時:050度から8ノットの風

但し、03-09時:一時、
但し、15-21時:一時、

那覇空港
TAF ROAH 290839Z 291812 33010KT 9999 FEW025
日本時間30日03-21時:330度から10ノットの風


マウイのカフルイ空港
PHOG 291121Z 291212 05010KT P6SM SCT050
FM1900 05015G25KT P6SM SCT050
FM0000 05018G28KT P6SM SCT040
FM0400 05015KT P6SM SCT040
FM0800 05010KT P6SM SCT050
ハワイ時間29日02-09時:050度から10ノットの風
09-14時:050度から15ノット、突風25ノット
14-22時:050度から18ノット、突風28ノット
22時-30日02時:050度から10ノットの風


サイパン空港
PGSN 291130Z 291212 VRB04KT P6SM FEW020
マリアナ時間29日22時-30日22時:風向不定4ノットの風

コメント
この記事をはてなブックマークに追加

8/27-28の航空気象通報(国内、海外)

2008年08月27日 22時08分12秒 | TAF
羽田空港
TAF RJTT 270843Z 271812 01010KT 6000 -RA FEW004 SCT008 BKN015
TEMPO 1821 3000 RA BR FEW004 BKN008 BKN015
BECMG 0003 13010KT
TEMPO 0009 4000 SHRA BR
日本時間28日03-09時:010度から10ノットの風
09-12時:風が変化
12-21時:130度から10ノットの風

但し、03-06時:一時、
但し、09-18時:一時、

那覇空港
TAF ROAH 270837Z 271812 34009KT 9999 FEW025
日本時間28日03-21時:340度から9ノットの風


マウイのカフルイ空港
PHOG 271126Z 271212 06011KT P6SM FEW030 SCT050
FM2000 04016G23KT P6SM FEW030 SCT050
FM0600 06011KT P6SM FEW030 SCT050
ハワイ時間27日02-10時:060度から11ノットの風
10-20時:040度から16ノット、突風23ノット
20時-28日02時:060度から11ノットの風

コメント
この記事をはてなブックマークに追加

8/26-27の航空気象通報(国内、海外)

2008年08月26日 23時39分09秒 | TAF
羽田空港
TAF RJTT 260844Z 261812 01010KT 8000 FEW005 BKN007 BKN015
BECMG 0003 FEW010 SCT020 BKN040
TEMPO 0306 4000 SHRA BR
日本時間27日03-21時:010度から10ノットの風
、但し、12-15時:一時、

那覇空港
TAF ROAH 260839Z 261812 32012KT 9999 SCT015
日本時間27日03-21時:320度から12ノットの風


マウイのカフルイ空港
PHOG 261120Z 261212 04011KT P6SM FEW030 SCT060
FM2000 04020G27KT P6SM FEW030 SCT050
FM0600 04011KT P6SM FEW030 SCT050
ハワイ時間26日02-10時:040度から11ノットの風
10-20時:040度から20ノット、突風27ノット
20時-27日02時:040度から11ノットの風


サイパン空港
PGSN 261120Z 261212 06005KT P6SM VCSH SCT020
マリアナ時間26日22時-27日22時:060度から5ノットの風
コメント
この記事をはてなブックマークに追加